KFNT/FNT METAR and TAF weather

Enter ICAO airport designator
Station Type Date Time Source
KFNT METAR 2022/01/28 00:12 UTC NOAA

KFNT 280012Z 24005KT 6SM -SN BKN018 OVC024 M03/M06 A3007 RMK AO2 P0000 T10281056


Station Type Date Time Source
KFNT Decoded METAR 2022/01/28 00:12 UTC NOAA

FLINT BISHOP INTERNATIONAL AIRPORT, MI, United States (KFNT) 42-58N 83-45W 233M
Jan 27, 2022 - 07:12 PM EST / 2022.01.28 0012 UTC
Wind: from the WSW (240 degrees) at 6 MPH (5 KT):0
Visibility: 6 mile(s):0
Sky conditions: overcast
Weather: light snow
Precipitation last hour: A trace
Temperature: 27.0 F (-2.8 C)
Windchill: 19 F (-7 C):1
Dew Point: 21.9 F (-5.6 C)
Relative Humidity: 81%
Pressure (altimeter): 30.07 in. Hg (1018 hPa)
ob: KFNT 280012Z 24005KT 6SM -SN BKN018 OVC024 M03/M06 A3007 RMK AO2 P0000 T10281056
cycle: 0

Station Type Date Time Source
KFNT TAF 2022/01/27 20:54 UTC NOAA

TAF
AMD KFNT 271952Z 2720/2818 23013KT P6SM OVC029
FM272100 26010G20KT 6SM -SHSN OVC025
TEMPO 2723/2802 1 1/2SM -SHSN OVC010
FM280300 35012G18KT P6SM SCT028 BKN060
FM280600 36006KT P6SM SCT020
TEMPO 2813/2816 BKN022
FM281600 01008KT P6SM BKN025

Example: see airport list